Time;durP1;ratioP1;P1;durP2;ratioP2;P2;SDS_P1;SDS_P2;PMS_P1;PMS_P2;Temp;Humidity;BMP_temperature;BMP_pressure;BME280_temperature;BME280_humidity;BME280_pressure;Samples;Min_cycle;Max_cycle;Signal;HPM_P1;HPM_P2
2021/12/29 00:01:39;;;;;;;189.80;120.88;;;128.30;2252.80;;;;;;5052411;28;20056;-61
2021/12/29 00:04:05;;;;;;;359.23;220.98;;;128.40;2252.80;;;;;;5052813;28;20100;-61
2021/12/29 00:06:31;;;;;;;477.60;304.90;;;128.20;2252.80;;;;;;5052536;28;20043;-62
2021/12/29 00:08:59;;;;;;;578.90;378.05;;;128.10;2252.80;;;;;;5052709;28;20025;-61
2021/12/29 00:11:25;;;;;;;507.88;332.05;;;128.10;2252.80;;;;;;5052454;28;20037;-61
2021/12/29 00:13:50;;;;;;;412.08;269.00;;;128.30;2252.80;;;;;;5043523;28;20026;-62
2021/12/29 00:16:16;;;;;;;370.42;237.85;;;128.20;2252.80;;;;;;5041212;28;20025;-61
2021/12/29 00:18:44;;;;;;;432.23;259.40;;;128.10;2252.80;;;;;;5042280;28;20387;-61
2021/12/29 00:21:10;;;;;;;370.77;226.52;;;128.00;2252.80;;;;;;5042595;28;20460;-61
2021/12/29 00:23:36;;;;;;;375.90;232.48;;;128.00;2252.80;;;;;;5040884;28;20028;-61
2021/12/29 00:26:02;;;;;;;281.05;174.80;;;128.10;2252.80;;;;;;5042100;28;20135;-61
2021/12/29 00:28:28;;;;;;;255.63;160.23;;;128.20;2252.80;;;;;;5042421;28;20025;-62
2021/12/29 00:30:54;;;;;;;209.95;133.60;;;128.20;2252.80;;;;;;5040447;28;20551;-61
2021/12/29 00:33:23;;;;;;;188.98;120.43;;;128.30;2252.80;;;;;;5042484;28;20029;-62
2021/12/29 00:35:49;;;;;;;316.27;172.07;;;128.30;2252.80;;;;;;5042276;28;20022;-61
2021/12/29 00:38:15;;;;;;;189.82;109.72;;;128.20;2252.80;;;;;;5040465;28;20163;-62
2021/12/29 00:40:41;;;;;;;124.60;77.85;;;128.30;2252.80;;;;;;5041634;28;20020;-62
2021/12/29 00:43:08;;;;;;;142.82;86.38;;;128.20;2252.80;;;;;;5042752;28;20032;-61
2021/12/29 00:45:38;;;;;;;208.88;115.07;;;128.40;2252.80;;;;;;5041868;28;20468;-62
2021/12/29 00:48:10;;;;;;;139.05;83.78;;;128.30;2252.80;;;;;;5039852;28;20048;-60
2021/12/29 00:50:36;;;;;;;182.55;113.20;;;128.40;2252.80;;;;;;5046919;28;20372;-61
2021/12/29 00:53:02;;;;;;;112.40;65.82;;;128.40;2252.80;;;;;;5041531;28;20024;-62
2021/12/29 00:55:28;;;;;;;93.47;55.88;;;128.50;2252.80;;;;;;5040614;28;20051;-62
2021/12/29 00:57:56;;;;;;;81.45;51.33;;;128.50;2252.80;;;;;;5041664;28;20146;-62
2021/12/29 01:00:25;;;;;;;84.65;51.72;;;128.60;2252.80;;;;;;5038965;28;20033;-61
2021/12/29 01:02:54;;;;;;;80.90;51.70;;;128.80;2252.80;;;;;;5042494;28;20046;-62
2021/12/29 01:05:22;;;;;;;57.33;37.53;;;128.90;2252.80;;;;;;5034403;28;20059;-61
2021/12/29 01:07:49;;;;;;;58.95;38.78;;;128.90;2252.80;;;;;;5031700;28;20027;-61
2021/12/29 01:10:17;;;;;;;53.00;35.63;;;128.90;2252.80;;;;;;5031648;28;20044;-62
2021/12/29 01:12:58;;;;;;;49.47;33.40;;;153.70;2252.80;;;;;;5031338;28;20032;-61
2021/12/29 01:15:32;;;;;;;70.03;41.30;;;153.70;2252.80;;;;;;5031523;28;20045;-61
2021/12/29 01:18:00;;;;;;;46.15;32.30;;;153.80;2252.80;;;;;;5031462;28;20048;-61
2021/12/29 01:20:28;;;;;;;67.68;44.92;;;154.00;2252.80;;;;;;5031468;28;20076;-61
2021/12/29 01:22:58;;;;;;;75.72;51.55;;;154.10;2252.80;;;;;;5030624;28;20497;-61
2021/12/29 01:25:25;;;;;;;182.52;125.55;;;153.90;2252.80;;;;;;5031138;28;20452;-61
2021/12/29 01:27:51;;;;;;;244.93;157.48;;;153.90;2252.80;;;;;;5031192;28;20035;-61
2021/12/29 01:30:18;;;;;;;253.88;164.88;;;153.90;2252.80;;;;;;5031214;28;20120;-61
2021/12/29 01:32:44;;;;;;;146.02;94.28;;;153.80;2252.80;;;;;;5031118;28;20383;-61
2021/12/29 01:35:11;;;;;;;168.90;107.07;;;153.70;2252.80;;;;;;5031296;28;20029;-60
2021/12/29 01:37:38;;;;;;;165.43;100.93;;;153.70;2252.80;;;;;;5031342;28;20364;-62
2021/12/29 01:40:10;;;;;;;166.98;105.03;;;153.80;2252.80;;;;;;5031027;28;20163;-61
2021/12/29 01:42:36;;;;;;;172.65;107.40;;;153.80;2252.80;;;;;;5030930;28;20021;-62
2021/12/29 01:45:04;;;;;;;162.65;105.80;;;153.90;2252.80;;;;;;5030899;28;20516;-61
2021/12/29 01:47:37;;;;;;;276.85;166.85;;;154.00;2252.80;;;;;;5031112;28;20026;-61
2021/12/29 01:50:03;;;;;;;;;;;154.00;2252.80;;;;;;5031260;28;20030;-61
2021/12/29 01:52:35;;;;;;;183.50;115.53;;;154.00;2252.80;;;;;;5030826;28;19958;-61
2021/12/29 01:55:01;;;;;;;150.77;97.03;;;154.10;2252.80;;;;;;5030932;28;20037;-61
2021/12/29 01:57:27;;;;;;;149.13;98.43;;;154.10;2252.80;;;;;;5030654;28;20044;-60
2021/12/29 01:59:52;;;;;;;164.40;107.25;;;154.20;2252.80;;;;;;5029618;28;20045;-61
2021/12/29 02:02:21;;;;;;;163.40;108.30;;;154.30;2252.80;;;;;;5030477;28;20053;-61
2021/12/29 02:04:47;;;;;;;153.32;97.32;;;154.30;2252.80;;;;;;5030624;28;20042;-60
2021/12/29 02:07:14;;;;;;;109.68;73.43;;;154.40;2252.80;;;;;;5030368;28;20571;-61
2021/12/29 02:09:40;;;;;;;117.20;78.20;;;154.40;2252.80;;;;;;5030679;28;20035;-61
2021/12/29 02:12:07;;;;;;;97.60;68.18;;;154.40;2252.80;;;;;;5030653;28;20484;-62
2021/12/29 02:14:33;;;;;;;98.97;66.15;;;154.30;2252.80;;;;;;5030345;28;20029;-62
2021/12/29 02:17:00;;;;;;;117.72;76.63;;;154.50;2252.80;;;;;;5030231;28;20029;-61
2021/12/29 02:19:26;;;;;;;70.63;50.50;;;154.40;2252.80;;;;;;5030535;28;20025;-61
2021/12/29 02:22:03;;;;;;;58.28;37.63;;;154.00;2252.80;;;;;;5030451;28;20087;-62
2021/12/29 02:24:44;;;;;;;41.92;29.00;;;154.10;2252.80;;;;;;5030163;28;20037;-62
2021/12/29 02:27:13;;;;;;;43.38;30.88;;;154.20;2252.80;;;;;;5030027;28;20037;-62
2021/12/29 02:29:41;;;;;;;59.88;46.10;;;154.30;2252.80;;;;;;5030408;28;20032;-61
2021/12/29 02:32:07;;;;;;;63.58;43.33;;;154.40;2252.80;;;;;;5030032;28;20033;-61
2021/12/29 02:34:33;;;;;;;67.93;42.67;;;154.40;2252.80;;;;;;5029717;28;20029;-61
2021/12/29 02:37:03;;;;;;;86.20;58.08;;;154.40;2252.80;;;;;;5029510;28;20039;-61
2021/12/29 02:39:33;;;;;;;91.07;55.90;;;154.50;2252.80;;;;;;5030256;28;20032;-61
2021/12/29 02:42:04;;;;;;;81.82;52.17;;;154.50;2252.80;;;;;;5030159;28;20087;-61
2021/12/29 02:44:38;;;;;;;74.32;49.13;;;154.40;2252.80;;;;;;5029905;28;20014;-62
2021/12/29 02:47:04;;;;;;;;;;;154.40;2252.80;;;;;;5030673;28;20025;-62
2021/12/29 02:49:29;;;;;;;278.05;186.48;;;154.00;2252.80;;;;;;5030018;28;20033;-62
2021/12/29 02:51:55;;;;;;;267.95;179.52;;;153.80;2252.80;;;;;;5030203;28;20033;-62
2021/12/29 02:54:21;;;;;;;193.43;122.60;;;153.70;2252.80;;;;;;5029854;28;20022;-62
2021/12/29 02:56:49;;;;;;;197.32;129.55;;;154.00;2252.80;;;;;;5029988;28;20036;-61
2021/12/29 02:59:16;;;;;;;209.43;140.27;;;154.10;2252.80;;;;;;5029975;28;20030;-62
2021/12/29 03:01:42;;;;;;;280.73;174.15;;;154.10;2252.80;;;;;;5029577;28;20049;-62
2021/12/29 03:04:08;;;;;;;233.25;135.13;;;154.20;2252.80;;;;;;5030127;28;20036;-62
2021/12/29 03:06:34;;;;;;;153.60;92.90;;;179.30;2252.80;;;;;;5029793;28;20499;-62
2021/12/29 03:09:03;;;;;;;122.93;80.30;;;154.40;2252.80;;;;;;5029740;28;20108;-62
2021/12/29 03:11:28;;;;;;;120.30;75.63;;;154.50;2252.80;;;;;;5029818;28;20033;-62
2021/12/29 03:13:54;;;;;;;112.45;73.68;;;179.20;2252.80;;;;;;5029815;28;20071;-62
2021/12/29 03:16:20;;;;;;;132.07;90.95;;;179.20;2252.80;;;;;;5029642;28;20035;-62
2021/12/29 03:18:46;;;;;;;102.55;59.17;;;179.20;2252.80;;;;;;5029805;28;20167;-62
2021/12/29 03:21:12;;;;;;;59.33;41.45;;;179.20;2252.80;;;;;;5029598;28;20492;-62
2021/12/29 03:23:38;;;;;;;117.97;80.90;;;179.30;2252.80;;;;;;5029845;28;20435;-62
2021/12/29 03:26:06;;;;;;;194.10;117.97;;;179.40;2252.80;;;;;;5029518;28;20057;-62
2021/12/29 03:28:33;;;;;;;97.97;62.65;;;179.50;2252.80;;;;;;5029507;28;20036;-62
2021/12/29 03:30:59;;;;;;;131.50;76.55;;;154.50;2252.80;;;;;;5029658;28;20480;-61
2021/12/29 03:33:28;;;;;;;67.85;44.40;;;154.20;2252.80;;;;;;5029751;28;20026;-62
2021/12/29 03:36:04;;;;;;;61.72;39.35;;;154.50;2252.80;;;;;;5029583;28;20435;-62
2021/12/29 03:38:32;;;;;;;55.17;35.67;;;179.20;2252.80;;;;;;5029736;28;20105;-61
2021/12/29 03:41:00;;;;;;;49.70;30.67;;;179.30;2252.80;;;;;;5029731;28;20155;-62
2021/12/29 03:43:28;;;;;;;191.63;107.80;;;179.50;2252.80;;;;;;5029552;28;20026;-61
2021/12/29 03:45:54;;;;;;;78.40;49.17;;;179.60;2252.80;;;;;;5029312;28;20091;-61
2021/12/29 03:48:22;;;;;;;129.40;86.47;;;179.70;2252.80;;;;;;5033145;28;20026;-61
2021/12/29 03:50:48;;;;;;;106.55;64.50;;;179.30;2252.80;;;;;;5033207;28;20472;-62
2021/12/29 03:53:15;;;;;;;110.43;65.38;;;154.50;2252.80;;;;;;5033019;28;20079;-61
2021/12/29 03:55:45;;;;;;;41.75;27.67;;;179.20;2252.80;;;;;;5032960;28;20030;-62
2021/12/29 03:58:11;;;;;;;89.00;51.15;;;154.50;2252.80;;;;;;5032777;28;20025;-62
2021/12/29 04:00:37;;;;;;;50.90;33.83;;;179.30;2252.80;;;;;;5032953;28;20053;-62
2021/12/29 04:03:04;;;;;;;37.40;23.35;;;179.50;2252.80;;;;;;5032967;28;20041;-61
2021/12/29 04:05:30;;;;;;;112.68;81.35;;;179.60;2252.80;;;;;;5032878;28;20124;-61
2021/12/29 04:07:56;;;;;;;46.85;33.72;;;179.70;2252.80;;;;;;5032840;28;20052;-61
2021/12/29 04:10:23;;;;;;;31.13;22.58;;;179.40;2252.80;;;;;;5032779;28;20648;-62
2021/12/29 04:12:49;;;;;;;42.00;27.40;;;179.50;2252.80;;;;;;5032634;28;20067;-61
2021/12/29 04:15:16;;;;;;;75.55;44.10;;;179.70;2252.80;;;;;;5032707;28;20108;-61
2021/12/29 04:17:43;;;;;;;47.92;29.58;;;179.70;2252.80;;;;;;5032628;28;20022;-61
2021/12/29 04:23:05;;;;;;;53.40;40.30;;;179.90;2252.80;;;;;;5032744;28;20032;-61
2021/12/29 04:25:34;;;;;;;45.55;31.02;;;180.00;2252.80;;;;;;5032412;28;20069;-61
2021/12/29 04:28:02;;;;;;;35.95;23.33;;;180.00;2252.80;;;;;;5032233;28;20028;-61
2021/12/29 04:30:28;;;;;;;26.75;20.73;;;179.80;2252.80;;;;;;5032333;28;20472;-61
2021/12/29 04:32:54;;;;;;;32.30;21.83;;;179.80;2252.80;;;;;;5032240;28;20480;-60
2021/12/29 04:35:21;;;;;;;20.70;15.85;;;179.90;2252.80;;;;;;5032352;28;20155;-60
2021/12/29 04:37:47;;;;;;;15.95;11.50;;;204.90;2252.80;;;;;;5032300;28;20041;-60
2021/12/29 04:40:13;;;;;;;33.30;20.52;;;204.90;2252.80;;;;;;5031900;28;20032;-61
2021/12/29 04:42:39;;;;;;;42.80;29.80;;;205.00;2252.80;;;;;;5032006;28;20106;-61
2021/12/29 04:45:06;;;;;;;30.98;22.00;;;205.00;2252.80;;;;;;5032291;28;20171;-61
2021/12/29 04:47:35;;;;;;;28.23;19.35;;;204.90;2252.80;;;;;;5032066;28;20029;-61
2021/12/29 04:50:02;;;;;;;22.65;14.18;;;204.80;2252.80;;;;;;5032496;28;20025;-61
2021/12/29 04:52:30;;;;;;;23.27;14.82;;;180.10;2252.80;;;;;;5031975;28;20396;-61
2021/12/29 04:54:56;;;;;;;21.83;14.35;;;180.10;2252.80;;;;;;5031979;28;20446;-60
2021/12/29 04:57:22;;;;;;;38.47;22.83;;;180.10;2252.80;;;;;;5031539;28;20033;-59
2021/12/29 04:59:48;;;;;;;27.13;18.50;;;204.80;2252.80;;;;;;5031454;28;20523;-59
2021/12/29 05:02:14;;;;;;;44.83;29.95;;;204.90;2252.80;;;;;;5031477;28;20100;-60
2021/12/29 05:04:48;;;;;;;38.08;24.52;;;204.80;2252.80;;;;;;5031566;28;20483;-60
2021/12/29 05:10:00;;;;;;;57.50;38.22;;;205.00;2252.80;;;;;;5031993;28;20407;-60
2021/12/29 05:12:26;;;;;;;65.95;46.25;;;205.20;2252.80;;;;;;5031663;28;20040;-60
2021/12/29 05:14:51;;;;;;;71.03;46.88;;;205.10;2252.80;;;;;;5031537;28;20388;-60
2021/12/29 05:17:17;;;;;;;45.88;35.65;;;205.10;2252.80;;;;;;5031693;28;20033;-60
2021/12/29 05:19:43;;;;;;;54.55;34.03;;;205.10;2252.80;;;;;;5031366;28;20087;-60
2021/12/29 05:22:09;;;;;;;50.83;37.72;;;205.00;2252.80;;;;;;5031504;28;20026;-60
2021/12/29 05:24:36;;;;;;;42.08;32.95;;;205.10;2252.80;;;;;;5031436;28;20079;-60
2021/12/29 05:27:02;;;;;;;22.23;16.88;;;205.10;2252.80;;;;;;5035549;28;20029;-59
2021/12/29 05:29:28;;;;;;;42.80;27.48;;;205.00;2252.80;;;;;;5051490;28;20028;-60
2021/12/29 05:31:54;;;;;;;25.27;20.88;;;205.00;2252.80;;;;;;5050925;28;20037;-60
2021/12/29 05:34:19;;;;;;;31.80;21.38;;;205.00;1920.00;;;;;;5051194;28;20036;-60
2021/12/29 05:36:45;;;;;;;26.63;19.27;;;205.00;2150.40;;;;;;5050286;28;20111;-61
2021/12/29 05:39:11;;;;;;;19.73;16.48;;;205.00;2252.80;;;;;;5030973;28;20028;-60
2021/12/29 05:41:37;;;;;;;33.30;29.98;;;205.00;2073.60;;;;;;5031346;28;20032;-60
2021/12/29 05:44:03;;;;;;;23.55;16.35;;;205.00;2252.80;;;;;;5030931;28;20038;-60
2021/12/29 05:46:28;;;;;;;21.17;15.65;;;205.00;1920.00;;;;;;5031054;28;20038;-60
2021/12/29 05:48:54;;;;;;;21.55;13.85;;;204.90;2073.60;;;;;;5030888;28;20475;-60
2021/12/29 05:51:20;;;;;;;23.17;16.27;;;205.00;1868.80;;;;;;5034784;28;20052;-60
2021/12/29 05:53:46;;;;;;;20.90;14.45;;;204.90;2252.80;;;;;;5051127;28;20032;-60
2021/12/29 05:56:11;;;;;;;26.90;18.30;;;204.90;2252.80;;;;;;5050761;28;20028;-60
2021/12/29 05:58:38;;;;;;;27.20;18.33;;;204.80;2252.80;;;;;;5050584;28;20428;-60
2021/12/29 06:01:05;;;;;;;29.17;20.15;;;180.10;1868.80;;;;;;5050332;28;20499;-60
2021/12/29 06:03:31;;;;;;;31.52;19.25;;;204.80;2073.60;;;;;;5050540;28;20387;-60
2021/12/29 06:05:57;;;;;;;34.83;20.65;;;204.90;2252.80;;;;;;5045460;28;20068;-60
2021/12/29 06:08:23;;;;;;;21.52;15.93;;;204.90;2252.80;;;;;;5050319;28;20102;-61
2021/12/29 06:10:49;;;;;;;19.42;15.00;;;205.00;2099.20;;;;;;5037595;28;20472;-65
2021/12/29 06:13:14;;;;;;;51.45;28.58;;;205.10;2252.80;;;;;;5032131;28;20464;-56
2021/12/29 06:15:40;;;;;;;26.85;18.77;;;205.20;2252.80;;;;;;5042763;28;20108;-56
2021/12/29 06:18:06;;;;;;;37.70;23.77;;;205.20;2252.80;;;;;;5049677;28;20025;-56
2021/12/29 06:20:32;;;;;;;37.25;24.77;;;205.30;2252.80;;;;;;5050339;28;20029;-56
2021/12/29 06:22:58;;;;;;;82.63;49.17;;;205.10;2252.80;;;;;;5050307;28;20029;-56
2021/12/29 06:25:29;;;;;;;46.45;31.00;;;205.30;2252.80;;;;;;5050241;28;20132;-56
2021/12/29 06:27:55;;;;;;;29.17;19.77;;;205.20;2252.80;;;;;;5049870;28;20028;-65
2021/12/29 06:30:21;;;;;;;95.55;66.53;;;205.10;2252.80;;;;;;5050086;28;20483;-55
2021/12/29 06:32:47;;;;;;;151.23;101.30;;;205.20;2252.80;;;;;;5050260;28;20032;-64
2021/12/29 06:35:14;;;;;;;57.88;44.80;;;205.10;2252.80;;;;;;5048328;28;20041;-56
2021/12/29 06:37:40;;;;;;;54.05;46.17;;;205.20;2252.80;;;;;;5043172;28;20045;-61
2021/12/29 06:40:07;;;;;;;81.70;68.75;;;205.20;2252.80;;;;;;5039531;28;20028;-56
2021/12/29 06:42:33;;;;;;;41.20;32.00;;;205.10;2252.80;;;;;;5037403;28;20013;-62
2021/12/29 06:44:59;;;;;;;34.30;26.88;;;205.10;2252.80;;;;;;5043215;28;20040;-56
2021/12/29 06:47:25;;;;;;;61.22;54.88;;;205.10;2252.80;;;;;;5049898;28;20036;-56
2021/12/29 06:49:50;;;;;;;27.90;20.17;;;205.10;2252.80;;;;;;5046027;28;20022;-56
2021/12/29 06:52:17;;;;;;;54.85;48.58;;;205.10;2252.80;;;;;;5040483;28;20360;-56
2021/12/29 06:54:44;;;;;;;31.67;22.80;;;205.20;2252.80;;;;;;5049984;28;20174;-56
2021/12/29 06:57:11;;;;;;;23.77;17.45;;;205.20;2252.80;;;;;;5049829;28;20555;-55
2021/12/29 06:59:37;;;;;;;21.88;16.73;;;205.20;2252.80;;;;;;5049956;28;20031;-55
2021/12/29 07:02:03;;;;;;;21.80;15.57;;;205.20;2252.80;;;;;;5049514;28;20128;-56
2021/12/29 07:04:29;;;;;;;19.42;15.07;;;205.30;2252.80;;;;;;5049846;28;20032;-56
2021/12/29 07:06:55;;;;;;;45.22;34.85;;;205.20;2252.80;;;;;;5049817;28;20434;-63
2021/12/29 07:09:21;;;;;;;28.83;19.60;;;205.20;2252.80;;;;;;5049892;28;20029;-64
2021/12/29 07:11:47;;;;;;;20.48;15.70;;;205.30;2252.80;;;;;;5050041;28;20021;-61
2021/12/29 07:14:13;;;;;;;23.98;18.17;;;205.40;2252.80;;;;;;5049694;28;20139;-59
2021/12/29 07:16:43;;;;;;;20.80;14.23;;;205.30;2252.80;;;;;;5049803;28;20222;-64
2021/12/29 07:19:09;;;;;;;21.92;17.30;;;205.40;2252.80;;;;;;5049802;28;20597;-64
2021/12/29 07:21:34;;;;;;;37.85;26.80;;;205.50;2252.80;;;;;;5050970;28;20032;-56
2021/12/29 07:24:00;;;;;;;30.30;20.90;;;205.40;2252.80;;;;;;5053494;28;20052;-57
2021/12/29 07:26:26;;;;;;;27.27;21.80;;;205.30;2252.80;;;;;;5051926;28;20076;-56
2021/12/29 07:28:52;;;;;;;27.88;18.02;;;205.30;2252.80;;;;;;5053310;28;20021;-57
2021/12/29 07:31:19;;;;;;;30.20;24.92;;;205.30;2252.80;;;;;;5053522;28;20368;-56
2021/12/29 07:33:45;;;;;;;28.00;20.45;;;205.30;2252.80;;;;;;5053627;28;20467;-58
2021/12/29 07:36:11;;;;;;;26.50;20.85;;;205.30;2252.80;;;;;;5053228;28;20036;-56
2021/12/29 07:38:39;;;;;;;26.85;21.40;;;205.20;2252.80;;;;;;5053311;28;20158;-56
2021/12/29 07:41:05;;;;;;;30.50;24.63;;;205.30;2252.80;;;;;;5053394;28;20078;-63
2021/12/29 07:43:31;;;;;;;32.58;21.88;;;205.30;2252.80;;;;;;5053374;28;20106;-58
2021/12/29 07:45:56;;;;;;;33.95;25.08;;;205.40;2252.80;;;;;;5053153;28;20091;-59
2021/12/29 07:48:27;;;;;;;29.92;21.52;;;205.40;2252.80;;;;;;5052921;28;20028;-63
2021/12/29 07:50:53;;;;;;;31.67;22.92;;;205.50;2252.80;;;;;;5052970;28;20056;-63
2021/12/29 07:53:20;;;;;;;50.35;36.30;;;205.50;2252.80;;;;;;5053067;28;20106;-58
2021/12/29 07:55:46;;;;;;;43.00;28.85;;;205.50;2252.80;;;;;;5053021;28;20032;-57
2021/12/29 07:58:11;;;;;;;28.60;21.40;;;205.60;2252.80;;;;;;5052803;28;20021;-55
2021/12/29 08:00:37;;;;;;;27.20;21.40;;;205.70;2252.80;;;;;;5052623;28;20383;-67
2021/12/29 08:03:03;;;;;;;26.63;20.92;;;230.40;2252.80;;;;;;5053005;28;20091;-65
2021/12/29 08:05:29;;;;;;;28.35;22.80;;;230.40;2252.80;;;;;;5052829;28;20041;-70
2021/12/29 08:07:55;;;;;;;34.65;26.00;;;230.50;2252.80;;;;;;5053060;28;20025;-58
2021/12/29 08:10:21;;;;;;;34.17;23.02;;;230.50;2252.80;;;;;;5052811;28;20033;-67
2021/12/29 08:12:46;;;;;;;44.90;32.97;;;230.60;2252.80;;;;;;5053077;28;20063;-67
2021/12/29 08:15:13;;;;;;;32.78;25.98;;;230.50;2252.80;;;;;;5052886;28;20074;-55
2021/12/29 08:17:40;;;;;;;122.97;74.32;;;230.60;2252.80;;;;;;5052589;28;20036;-56
2021/12/29 08:20:07;;;;;;;40.30;28.33;;;230.40;2252.80;;;;;;5052628;28;20079;-56
2021/12/29 08:22:33;;;;;;;30.63;21.85;;;230.40;2252.80;;;;;;5052403;28;20622;-56
2021/12/29 08:24:59;;;;;;;32.28;23.75;;;230.60;2252.80;;;;;;5052465;28;20037;-55
2021/12/29 08:27:25;;;;;;;23.10;17.63;;;230.60;2252.80;;;;;;5052669;28;20361;-56
2021/12/29 08:29:51;;;;;;;38.13;28.50;;;230.70;2252.80;;;;;;5052342;28;20029;-55
2021/12/29 08:32:17;;;;;;;28.77;21.63;;;230.90;2252.80;;;;;;5052094;28;20078;-56
2021/12/29 08:34:43;;;;;;;30.35;24.17;;;230.80;2252.80;;;;;;5052037;28;20055;-56
2021/12/29 08:37:09;;;;;;;23.50;18.38;;;230.90;2252.80;;;;;;5052299;28;20017;-56
2021/12/29 08:39:35;;;;;;;66.93;47.10;;;231.00;2252.80;;;;;;5052305;28;20032;-56
2021/12/29 08:42:01;;;;;;;36.15;27.02;;;230.90;2252.80;;;;;;5052097;28;20379;-56
2021/12/29 08:44:27;;;;;;;25.35;19.95;;;231.00;2252.80;;;;;;5052245;28;20033;-56
2021/12/29 08:46:53;;;;;;;24.38;18.55;;;231.10;2252.80;;;;;;5052124;28;20402;-56
2021/12/29 08:49:20;;;;;;;25.38;19.63;;;231.00;2252.80;;;;;;5052077;28;20025;-55
2021/12/29 08:51:45;;;;;;;31.77;22.67;;;230.90;2252.80;;;;;;5052035;28;20463;-63
2021/12/29 08:54:13;;;;;;;23.85;16.50;;;230.90;2252.80;;;;;;5051702;28;20031;-56
2021/12/29 08:56:39;;;;;;;42.97;31.92;;;231.00;2252.80;;;;;;5051936;28;20479;-55
2021/12/29 08:59:04;;;;;;;41.15;32.92;;;231.10;2252.80;;;;;;5051975;28;20037;-56
2021/12/29 09:01:30;;;;;;;26.83;22.90;;;231.10;2252.80;;;;;;5051544;28;20080;-56
2021/12/29 09:03:56;;;;;;;21.50;15.95;;;231.10;2252.80;;;;;;5051861;28;20427;-55
2021/12/29 09:06:22;;;;;;;31.35;28.02;;;231.20;2252.80;;;;;;5051391;28;20037;-56
2021/12/29 09:08:48;;;;;;;55.97;49.22;;;231.10;2252.80;;;;;;5051604;28;20024;-56
2021/12/29 09:11:14;;;;;;;41.45;35.78;;;231.20;2252.80;;;;;;5051694;28;20526;-56
2021/12/29 09:13:41;;;;;;;44.60;33.10;;;231.30;2252.80;;;;;;5051556;28;20070;-56
2021/12/29 09:16:07;;;;;;;20.65;15.77;;;256.00;2252.80;;;;;;5051666;28;20056;-56
2021/12/29 09:18:34;;;;;;;17.63;13.77;;;256.30;2252.80;;;;;;5051370;28;20075;-56
2021/12/29 09:21:06;;;;;;;38.50;30.05;;;256.60;2252.80;;;;;;5051218;28;20025;-56
2021/12/29 09:23:35;;;;;;;22.65;17.17;;;256.80;2252.80;;;;;;5051189;28;20395;-56
2021/12/29 09:26:02;;;;;;;31.13;22.13;;;256.90;2252.80;;;;;;5051298;28;20036;-56
2021/12/29 09:28:28;;;;;;;19.60;14.80;;;256.80;2252.80;;;;;;5051521;28;20371;-56
2021/12/29 09:30:55;;;;;;;14.18;10.68;;;256.90;2252.80;;;;;;5051258;28;20029;-56
2021/12/29 09:33:21;;;;;;;14.73;11.13;;;281.60;2278.40;;;;;;5051018;28;20100;-56
2021/12/29 09:35:52;;;;;;;13.55;10.40;;;256.90;2252.80;;;;;;5051246;28;20079;-55
2021/12/29 09:38:19;;;;;;;15.52;11.73;;;256.90;2252.80;;;;;;5051019;28;20017;-56
2021/12/29 09:40:47;;;;;;;21.33;16.58;;;256.80;2252.80;;;;;;5051165;28;20035;-55
2021/12/29 09:43:13;;;;;;;15.27;11.88;;;256.90;2252.80;;;;;;5050779;28;20428;-55
2021/12/29 09:45:40;;;;;;;24.00;17.45;;;281.60;2278.40;;;;;;5050301;28;20479;-56
2021/12/29 09:48:06;;;;;;;18.85;13.27;;;281.70;2278.40;;;;;;5050758;28;20033;-56
2021/12/29 09:50:33;;;;;;;17.98;12.13;;;282.00;2278.40;;;;;;5050783;28;20024;-56
2021/12/29 09:52:59;;;;;;;13.90;11.20;;;282.00;2278.40;;;;;;5050815;28;20486;-55
2021/12/29 09:55:26;;;;;;;38.75;25.35;;;282.00;2278.40;;;;;;5050940;28;20071;-56
2021/12/29 09:57:55;;;;;;;15.70;10.55;;;282.00;2278.40;;;;;;5050547;28;20040;-56
2021/12/29 10:00:26;;;;;;;11.82;8.60;;;282.20;2278.40;;;;;;5050573;28;20104;-56
2021/12/29 10:02:54;;;;;;;15.18;10.25;;;282.10;2278.40;;;;;;5050473;28;20037;-56
2021/12/29 10:05:22;;;;;;;22.98;14.88;;;281.80;2278.40;;;;;;5050169;28;20044;-56
2021/12/29 10:07:58;;;;;;;13.20;9.43;;;281.80;2278.40;;;;;;5050469;28;20028;-55
2021/12/29 10:10:23;;;;;;;17.35;10.38;;;281.80;2278.40;;;;;;5050485;28;20024;-56
2021/12/29 10:12:49;;;;;;;9.70;8.05;;;281.80;2278.40;;;;;;5050505;28;20480;-56
2021/12/29 10:15:15;;;;;;;10.82;9.10;;;281.90;2278.40;;;;;;5050561;28;20078;-56
2021/12/29 10:17:41;;;;;;;12.73;10.45;;;282.20;2278.40;;;;;;5050227;28;20029;-56
2021/12/29 10:20:12;;;;;;;19.15;13.75;;;282.40;2278.40;;;;;;5050212;28;20028;-56
2021/12/29 10:22:38;;;;;;;16.88;14.70;;;282.50;2278.40;;;;;;5050044;28;20062;-55
2021/12/29 10:25:09;;;;;;;47.55;35.55;;;282.50;2278.40;;;;;;5049971;28;20033;-56
2021/12/29 10:27:36;;;;;;;15.77;10.93;;;282.50;2278.40;;;;;;5050218;28;20378;-55
2021/12/29 10:30:17;;;;;;;13.20;9.65;;;282.50;2278.40;;;;;;5049963;28;20017;-56
2021/12/29 10:32:44;;;;;;;14.45;9.73;;;282.40;2278.40;;;;;;5049973;28;20055;-56
2021/12/29 10:35:20;;;;;;;11.43;8.10;;;282.50;2278.40;;;;;;5050127;28;20024;-55
2021/12/29 10:37:46;;;;;;;12.43;9.52;;;282.50;2278.40;;;;;;5050276;28;20094;-56
2021/12/29 10:40:15;;;;;;;15.20;9.38;;;307.20;2304.00;;;;;;5049958;28;20467;-56
2021/12/29 10:42:53;;;;;;;12.40;9.38;;;282.40;2278.40;;;;;;5049802;28;20108;-64
2021/12/29 10:45:31;;;;;;;13.35;9.75;;;282.50;2278.40;;;;;;5049826;28;20071;-56
2021/12/29 10:47:57;;;;;;;10.88;8.25;;;282.40;2278.40;;;;;;5050198;28;20025;-63
2021/12/29 10:50:25;;;;;;;15.02;12.57;;;282.40;2278.40;;;;;;5049931;28;20086;-56
2021/12/29 10:52:54;;;;;;;12.98;9.57;;;282.40;2278.40;;;;;;5049877;28;20021;-63
2021/12/29 10:55:31;;;;;;;12.45;9.05;;;282.50;2278.40;;;;;;5049936;28;20021;-57
2021/12/29 10:58:14;;;;;;;10.63;7.95;;;282.30;2278.40;;;;;;5053426;28;20027;-63
2021/12/29 11:00:44;;;;;;;18.75;12.88;;;282.10;2278.40;;;;;;5053791;28;20094;-63
2021/12/29 11:03:21;;;;;;;11.80;7.30;;;282.50;2278.40;;;;;;5054103;28;20021;-63
2021/12/29 11:05:53;;;;;;;10.38;7.35;;;307.30;2304.00;;;;;;5053789;28;20425;-56
2021/12/29 11:08:19;;;;;;;11.75;8.20;;;307.40;2304.00;;;;;;5054035;28;20029;-64
2021/12/29 11:10:46;;;;;;;11.30;9.57;;;307.60;2304.00;;;;;;5053558;28;20109;-63
2021/12/29 11:13:24;;;;;;;8.77;7.07;;;307.70;2304.00;;;;;;5053949;28;20431;-63
2021/12/29 11:15:53;;;;;;;9.55;7.50;;;307.80;2304.00;;;;;;5053858;28;20028;-61
2021/12/29 11:18:18;;;;;;;9.43;7.32;;;307.80;2304.00;;;;;;5053698;28;20036;-64
2021/12/29 11:20:44;;;;;;;9.98;7.00;;;307.90;2304.00;;;;;;5053259;28;20017;-62
2021/12/29 11:23:16;;;;;;;8.30;6.30;;;308.00;2304.00;;;;;;5053502;28;20033;-57
2021/12/29 11:25:43;;;;;;;7.47;5.72;;;307.90;2304.00;;;;;;5053328;28;20037;-63
2021/12/29 11:28:21;;;;;;;9.45;6.78;;;308.10;2304.00;;;;;;5053622;28;20025;-64
2021/12/29 11:30:47;;;;;;;13.43;8.20;;;333.00;2329.60;;;;;;5053588;28;20021;-63
2021/12/29 11:33:13;;;;;;;13.95;9.05;;;333.10;2329.60;;;;;;5053179;28;20025;-62
2021/12/29 11:35:42;;;;;;;15.63;11.48;;;333.30;2329.60;;;;;;5052175;28;20024;-63
2021/12/29 11:38:08;;;;;;;17.50;12.60;;;333.20;2329.60;;;;;;5053370;28;20459;-64
2021/12/29 11:40:39;;;;;;;24.58;17.85;;;333.20;2329.60;;;;;;5053447;28;20033;-64
2021/12/29 11:43:07;;;;;;;31.77;21.13;;;333.10;2329.60;;;;;;5053415;28;20025;-63
2021/12/29 11:45:33;;;;;;;24.92;19.52;;;333.00;2329.60;;;;;;5053101;28;20618;-63
2021/12/29 11:47:59;;;;;;;31.58;24.77;;;332.90;2329.60;;;;;;5053235;28;20029;-63
2021/12/29 11:50:31;;;;;;;34.85;25.88;;;332.80;2329.60;;;;;;5053152;28;20488;-63
2021/12/29 11:52:58;;;;;;;23.52;18.35;;;332.90;2329.60;;;;;;5053377;28;20056;-63
2021/12/29 11:55:33;;;;;;;27.00;21.15;;;332.90;2329.60;;;;;;5052752;28;20108;-64
2021/12/29 11:58:41;;;;;;;35.15;24.98;;;332.80;2329.60;;;;;;5052990;28;20033;-64
2021/12/29 12:01:12;;;;;;;37.13;22.38;;;332.90;2329.60;;;;;;5052625;28;20442;-63
2021/12/29 12:03:43;;;;;;;39.45;30.05;;;308.10;2304.00;;;;;;5052989;28;20027;-63
2021/12/29 12:06:22;;;;;;;36.88;27.42;;;332.80;2329.60;;;;;;5052971;28;20037;-62